createdAt,value
2018-07-04T00:00:15.767Z,1009.7
2018-07-04T00:00:41.904Z,1009.7
2018-07-04T00:01:08.064Z,1009.71
2018-07-04T00:01:34.229Z,1009.7
2018-07-04T00:02:00.372Z,1009.73
2018-07-04T00:02:26.509Z,1009.72
2018-07-04T00:02:52.649Z,1009.73
2018-07-04T00:03:18.784Z,1009.74
2018-07-04T00:03:44.929Z,1009.74
2018-07-04T00:04:11.092Z,1009.78
2018-07-04T00:04:37.258Z,1009.79
2018-07-04T00:05:03.391Z,1009.77
2018-07-04T00:05:29.524Z,1009.75
2018-07-04T00:05:55.666Z,1009.76
2018-07-04T00:06:21.856Z,1009.75
2018-07-04T00:06:48.018Z,1009.76
2018-07-04T00:07:14.181Z,1009.74
2018-07-04T00:07:40.320Z,1009.79
2018-07-04T00:08:06.457Z,1009.77
2018-07-04T00:08:32.597Z,1009.78
2018-07-04T00:08:58.737Z,1009.73
2018-07-04T00:09:24.879Z,1009.74
2018-07-04T00:09:51.013Z,1009.76
2018-07-04T00:10:17.147Z,1009.75
2018-07-04T00:10:43.292Z,1009.74
2018-07-04T00:11:09.430Z,1009.76
2018-07-04T00:11:35.567Z,1009.73
2018-07-04T00:12:01.724Z,1009.74
2018-07-04T00:12:31.093Z,1009.71
2018-07-04T00:12:57.236Z,1009.71
2018-07-04T00:13:23.372Z,1009.7
2018-07-04T00:13:49.513Z,1009.72
2018-07-04T00:14:15.712Z,1009.67
2018-07-04T00:14:41.850Z,1009.7
2018-07-04T00:15:07.986Z,1009.68
2018-07-04T00:15:34.132Z,1009.71
2018-07-04T00:16:00.286Z,1009.69
2018-07-04T00:16:26.449Z,1009.7
2018-07-04T00:16:52.595Z,1009.66
2018-07-04T00:17:18.731Z,1009.68
2018-07-04T00:17:44.892Z,1009.68
2018-07-04T00:18:11.061Z,1009.65
2018-07-04T00:18:37.196Z,1009.68
2018-07-04T00:19:03.359Z,1009.67
2018-07-04T00:19:29.498Z,1009.65
2018-07-04T00:19:55.666Z,1009.66
2018-07-04T00:20:21.802Z,1009.66
2018-07-04T00:20:47.967Z,1009.66
2018-07-04T00:21:14.132Z,1009.68
2018-07-04T00:21:40.269Z,1009.63
2018-07-04T00:22:06.433Z,1009.65
2018-07-04T00:22:32.599Z,1009.63
2018-07-04T00:22:58.717Z,1009.66
2018-07-04T00:23:24.846Z,1009.64
2018-07-04T00:23:50.991Z,1009.67
2018-07-04T00:24:17.128Z,1009.67
2018-07-04T00:24:43.266Z,1009.65
2018-07-04T00:25:09.406Z,1009.68
2018-07-04T00:25:35.568Z,1009.68
2018-07-04T00:26:01.683Z,1009.67
2018-07-04T00:26:27.816Z,1009.64
2018-07-04T00:26:53.960Z,1009.66
2018-07-04T00:27:20.102Z,1009.64
2018-07-04T00:27:46.262Z,1009.64
2018-07-04T00:28:12.401Z,1009.64
2018-07-04T00:28:38.536Z,1009.64
2018-07-04T00:29:04.673Z,1009.63
2018-07-04T00:29:30.811Z,1009.64
2018-07-04T00:29:56.960Z,1009.63
2018-07-04T00:30:23.126Z,1009.67
2018-07-04T00:30:49.268Z,1009.64
2018-07-04T00:31:15.405Z,1009.64
2018-07-04T00:31:41.536Z,1009.62
2018-07-04T00:32:07.685Z,1009.65
2018-07-04T00:32:33.843Z,1009.67
2018-07-04T00:32:59.979Z,1009.62
2018-07-04T00:33:26.109Z,1009.66
2018-07-04T00:33:52.259Z,1009.66
2018-07-04T00:34:18.410Z,1009.64
2018-07-04T00:34:44.546Z,1009.64
2018-07-04T00:35:10.680Z,1009.66
2018-07-04T00:35:36.822Z,1009.63
2018-07-04T00:36:02.960Z,1009.67
2018-07-04T00:36:29.127Z,1009.62
2018-07-04T00:36:55.264Z,1009.66
2018-07-04T00:37:21.399Z,1009.67
2018-07-04T00:37:47.571Z,1009.64
2018-07-04T00:38:13.711Z,1009.66
2018-07-04T00:38:39.843Z,1009.7
2018-07-04T00:39:05.983Z,1009.66
2018-07-04T00:39:32.118Z,1009.65
2018-07-04T00:39:58.316Z,1009.69
2018-07-04T00:40:24.470Z,1009.68
2018-07-04T00:40:50.610Z,1009.68
2018-07-04T00:41:16.759Z,1009.65
2018-07-04T00:41:42.941Z,1009.68
2018-07-04T00:42:09.087Z,1009.69
2018-07-04T00:42:35.216Z,1009.65
2018-07-04T00:43:01.357Z,1009.67
2018-07-04T00:43:27.496Z,1009.65
2018-07-04T00:43:53.637Z,1009.66
2018-07-04T00:44:19.771Z,1009.71
2018-07-04T00:44:45.912Z,1009.67
2018-07-04T00:45:12.046Z,1009.63
2018-07-04T00:45:38.188Z,1009.65
2018-07-04T00:46:04.325Z,1009.63
2018-07-04T00:46:30.466Z,1009.66
2018-07-04T00:46:56.602Z,1009.64
2018-07-04T00:47:22.740Z,1009.62
2018-07-04T00:47:48.880Z,1009.6
2018-07-04T00:48:15.013Z,1009.61
2018-07-04T00:48:41.152Z,1009.62
2018-07-04T00:49:07.292Z,1009.61
2018-07-04T00:49:33.434Z,1009.61
2018-07-04T00:49:59.573Z,1009.58
2018-07-04T00:50:25.710Z,1009.63
2018-07-04T00:50:51.877Z,1009.6
2018-07-04T00:51:18.019Z,1009.64
2018-07-04T00:51:44.184Z,1009.57
2018-07-04T00:52:10.319Z,1009.62
2018-07-04T00:52:36.451Z,1009.62
2018-07-04T00:53:02.626Z,1009.62
2018-07-04T00:53:28.758Z,1009.61
2018-07-04T00:53:54.893Z,1009.62
2018-07-04T00:54:21.077Z,1009.58
2018-07-04T00:54:47.216Z,1009.64
2018-07-04T00:55:13.357Z,1009.61
2018-07-04T00:55:39.500Z,1009.61
2018-07-04T00:56:05.636Z,1009.62
2018-07-04T00:56:31.778Z,1009.63
2018-07-04T00:56:57.944Z,1009.61
2018-07-04T00:57:24.079Z,1009.59
2018-07-04T00:57:50.219Z,1009.6
2018-07-04T00:58:16.357Z,1009.58
2018-07-04T00:58:42.495Z,1009.6
2018-07-04T00:59:08.663Z,1009.59
2018-07-04T00:59:34.802Z,1009.57
2018-07-04T01:00:00.948Z,1009.6
2018-07-04T01:00:27.084Z,1009.59
2018-07-04T01:00:53.219Z,1009.58
2018-07-04T01:01:19.391Z,1009.57
2018-07-04T01:01:45.548Z,1009.58
2018-07-04T01:02:11.690Z,1009.59
2018-07-04T01:02:37.824Z,1009.59
2018-07-04T01:03:03.959Z,1009.55
2018-07-04T01:03:30.096Z,1009.57
2018-07-04T01:03:56.259Z,1009.6
2018-07-04T01:04:22.398Z,1009.6
2018-07-04T01:04:48.535Z,1009.58
2018-07-04T01:05:14.700Z,1009.63
2018-07-04T01:05:40.835Z,1009.58
2018-07-04T01:06:06.974Z,1009.63
2018-07-04T01:06:33.118Z,1009.63
2018-07-04T01:06:59.281Z,1009.65
2018-07-04T01:07:25.425Z,1009.65
2018-07-04T01:07:51.590Z,1009.64
2018-07-04T01:08:17.719Z,1009.64
2018-07-04T01:08:43.864Z,1009.67
2018-07-04T01:09:09.998Z,1009.65
2018-07-04T01:09:36.138Z,1009.65
2018-07-04T01:10:02.287Z,1009.64
2018-07-04T01:10:28.440Z,1009.63
2018-07-04T01:10:54.579Z,1009.65
2018-07-04T01:11:20.715Z,1009.64
2018-07-04T01:11:46.849Z,1009.66
2018-07-04T01:12:13.033Z,1009.65
2018-07-04T01:12:39.150Z,1009.64
2018-07-04T01:13:05.293Z,1009.6
2018-07-04T01:13:31.429Z,1009.62
2018-07-04T01:13:57.570Z,1009.61
2018-07-04T01:14:23.715Z,1009.63
2018-07-04T01:14:49.844Z,1009.6
2018-07-04T01:15:15.982Z,1009.59
2018-07-04T01:15:42.124Z,1009.57
2018-07-04T01:16:08.256Z,1009.55
2018-07-04T01:16:34.396Z,1009.55
2018-07-04T01:17:00.569Z,1009.54
2018-07-04T01:17:26.702Z,1009.54
2018-07-04T01:17:52.843Z,1009.57
2018-07-04T01:18:18.980Z,1009.57
2018-07-04T01:18:45.114Z,1009.56
2018-07-04T01:19:11.253Z,1009.57
2018-07-04T01:19:37.386Z,1009.55
2018-07-04T01:20:03.556Z,1009.52
2018-07-04T01:20:29.720Z,1009.53
2018-07-04T01:20:55.862Z,1009.54
2018-07-04T01:21:22.003Z,1009.5
2018-07-04T01:21:48.136Z,1009.48
2018-07-04T01:22:14.300Z,1009.53
2018-07-04T01:22:40.437Z,1009.49
2018-07-04T01:23:06.595Z,1009.52
2018-07-04T01:23:32.751Z,1009.47
2018-07-04T01:23:58.892Z,1009.51
2018-07-04T01:24:25.030Z,1009.45
2018-07-04T01:24:51.168Z,1009.45
2018-07-04T01:25:17.329Z,1009.48
2018-07-04T01:25:43.466Z,1009.44
2018-07-04T01:26:09.629Z,1009.45
2018-07-04T01:26:35.765Z,1009.45
2018-07-04T01:27:01.904Z,1009.46
2018-07-04T01:27:28.062Z,1009.42
2018-07-04T01:27:54.207Z,1009.43
2018-07-04T01:28:20.348Z,1009.43
2018-07-04T01:28:46.485Z,1009.41
2018-07-04T01:29:12.618Z,1009.38
2018-07-04T01:29:38.774Z,1009.43
2018-07-04T01:30:04.911Z,1009.41
2018-07-04T01:30:31.072Z,1009.4
2018-07-04T01:30:57.204Z,1009.4
2018-07-04T01:31:23.344Z,1009.39
2018-07-04T01:31:49.480Z,1009.4
2018-07-04T01:32:15.626Z,1009.37
2018-07-04T01:32:41.762Z,1009.4
2018-07-04T01:33:07.906Z,1009.42
2018-07-04T01:33:34.069Z,1009.39
2018-07-04T01:34:00.208Z,1009.37
2018-07-04T01:34:26.353Z,1009.39
2018-07-04T01:34:52.515Z,1009.36
2018-07-04T01:35:18.652Z,1009.39
2018-07-04T01:35:44.816Z,1009.39
2018-07-04T01:36:10.965Z,1009.38
2018-07-04T01:36:37.119Z,1009.37
2018-07-04T01:37:03.263Z,1009.36
2018-07-04T01:37:29.428Z,1009.4
2018-07-04T01:37:55.559Z,1009.39
2018-07-04T01:38:21.710Z,1009.38
2018-07-04T01:38:47.843Z,1009.36
2018-07-04T01:39:13.989Z,1009.35
2018-07-04T01:39:40.116Z,1009.4
2018-07-04T01:40:06.258Z,1009.35
2018-07-04T01:40:32.401Z,1009.37
2018-07-04T01:40:58.568Z,1009.37
2018-07-04T01:41:24.726Z,1009.32
2018-07-04T01:41:50.864Z,1009.33
2018-07-04T01:42:17.000Z,1009.34
2018-07-04T01:42:43.168Z,1009.37
2018-07-04T01:43:09.308Z,1009.35
2018-07-04T01:43:35.462Z,1009.36
2018-07-04T01:44:01.608Z,1009.36
2018-07-04T01:44:27.742Z,1009.33
2018-07-04T01:44:53.882Z,1009.3
2018-07-04T01:45:20.023Z,1009.29
2018-07-04T01:45:46.187Z,1009.33
2018-07-04T01:46:12.323Z,1009.35
2018-07-04T01:46:38.465Z,1009.3
2018-07-04T01:47:04.602Z,1009.33
2018-07-04T01:47:30.743Z,1009.3
2018-07-04T01:47:56.877Z,1009.3
2018-07-04T01:48:23.011Z,1009.31
2018-07-04T01:48:49.181Z,1009.29
2018-07-04T01:49:15.322Z,1009.3
2018-07-04T01:49:41.487Z,1009.26
2018-07-04T01:50:07.641Z,1009.29
2018-07-04T01:50:33.788Z,1009.29
2018-07-04T01:50:59.919Z,1009.29
2018-07-04T01:51:26.059Z,1009.28
2018-07-04T01:51:52.193Z,1009.27
2018-07-04T01:52:18.331Z,1009.26
2018-07-04T01:52:44.494Z,1009.24
2018-07-04T01:53:10.655Z,1009.29
2018-07-04T01:53:36.810Z,1009.22
2018-07-04T01:54:02.982Z,1009.21
2018-07-04T01:54:29.118Z,1009.23
2018-07-04T01:54:55.257Z,1009.22
2018-07-04T01:55:21.402Z,1009.21
2018-07-04T01:55:47.559Z,1009.18
2018-07-04T01:56:13.692Z,1009.17
2018-07-04T01:56:39.835Z,1009.2
2018-07-04T01:57:05.976Z,1009.16
2018-07-04T01:57:32.105Z,1009.18
2018-07-04T01:57:58.266Z,1009.16
2018-07-04T01:58:24.404Z,1009.17
2018-07-04T01:58:50.545Z,1009.17
2018-07-04T01:59:16.687Z,1009.18
2018-07-04T01:59:42.853Z,1009.15
2018-07-04T02:00:08.986Z,1009.18
2018-07-04T02:00:35.148Z,1009.16
2018-07-04T02:01:01.288Z,1009.14
2018-07-04T02:01:27.418Z,1009.13
2018-07-04T02:01:53.562Z,1009.18
2018-07-04T02:02:19.705Z,1009.13
2018-07-04T02:02:45.838Z,1009.18
2018-07-04T02:03:11.966Z,1009.16
2018-07-04T02:03:38.104Z,1009.18
2018-07-04T02:04:04.248Z,1009.15
2018-07-04T02:04:30.381Z,1009.18
2018-07-04T02:04:56.521Z,1009.17
2018-07-04T02:05:22.656Z,1009.17
2018-07-04T02:05:48.799Z,1009.19
2018-07-04T02:06:14.931Z,1009.17
2018-07-04T02:06:41.077Z,1009.19
2018-07-04T02:07:07.208Z,1009.14
2018-07-04T02:07:33.345Z,1009.16
2018-07-04T02:07:59.486Z,1009.16
2018-07-04T02:08:25.629Z,1009.21
2018-07-04T02:08:51.767Z,1009.15
2018-07-04T02:09:17.902Z,1009.15
2018-07-04T02:09:44.043Z,1009.12
2018-07-04T02:10:10.184Z,1009.15
2018-07-04T02:10:36.324Z,1009.12
2018-07-04T02:11:02.459Z,1009.15
2018-07-04T02:11:28.613Z,1009.15
2018-07-04T02:11:54.751Z,1009.13
2018-07-04T02:12:20.940Z,1009.15
2018-07-04T02:12:47.073Z,1009.12
2018-07-04T02:13:13.216Z,1009.11
2018-07-04T02:13:39.356Z,1009.14
2018-07-04T02:14:05.526Z,1009.15
2018-07-04T02:14:31.655Z,1009.15
2018-07-04T02:14:57.790Z,1009.11
2018-07-04T02:15:23.926Z,1009.15
2018-07-04T02:15:50.061Z,1009.12
2018-07-04T02:16:16.197Z,1009.16
2018-07-04T02:16:42.338Z,1009.13
2018-07-04T02:17:08.470Z,1009.12
2018-07-04T02:17:34.615Z,1009.11
2018-07-04T02:18:00.755Z,1009.13
2018-07-04T02:18:26.887Z,1009.13
2018-07-04T02:18:53.025Z,1009.15
2018-07-04T02:19:19.157Z,1009.14
2018-07-04T02:19:45.317Z,1009.13
2018-07-04T02:20:11.455Z,1009.15
2018-07-04T02:20:37.600Z,1009.16
2018-07-04T02:21:03.736Z,1009.17
2018-07-04T02:21:29.875Z,1009.18
2018-07-04T02:21:56.009Z,1009.17
2018-07-04T02:22:22.146Z,1009.2
2018-07-04T02:22:48.287Z,1009.16
2018-07-04T02:23:14.456Z,1009.2
2018-07-04T02:23:40.595Z,1009.17
2018-07-04T02:24:06.758Z,1009.17
2018-07-04T02:24:32.893Z,1009.22
2018-07-04T02:24:59.025Z,1009.18
2018-07-04T02:25:25.184Z,1009.17
2018-07-04T02:25:51.321Z,1009.17
2018-07-04T02:26:17.462Z,1009.18
2018-07-04T02:26:43.597Z,1009.15
2018-07-04T02:27:09.770Z,1009.13
2018-07-04T02:27:35.906Z,1009.17
2018-07-04T02:28:02.043Z,1009.13
2018-07-04T02:28:28.182Z,1009.17
2018-07-04T02:28:54.318Z,1009.12
2018-07-04T02:29:20.473Z,1009.12
2018-07-04T02:29:46.632Z,1009.11
2018-07-04T02:30:12.777Z,1009.14
2018-07-04T02:30:38.937Z,1009.12
2018-07-04T02:31:05.075Z,1009.1
2018-07-04T02:31:31.245Z,1009.08
2018-07-04T02:31:57.384Z,1009.13
2018-07-04T02:32:23.516Z,1009.1
2018-07-04T02:32:49.691Z,1009.12
2018-07-04T02:33:15.877Z,1009.1
2018-07-04T02:33:42.021Z,1009.12
2018-07-04T02:34:08.182Z,1009.14
2018-07-04T02:34:34.365Z,1009.12
2018-07-04T02:35:00.544Z,1009.14
2018-07-04T02:35:26.712Z,1009.13
2018-07-04T02:35:52.867Z,1009.12
2018-07-04T02:36:19.037Z,1009.09
2018-07-04T02:36:45.190Z,1009.09
2018-07-04T02:37:11.347Z,1009.07
2018-07-04T02:37:37.541Z,1009.07
2018-07-04T02:38:03.730Z,1009.07
2018-07-04T02:38:29.885Z,1009.03
2018-07-04T02:38:56.069Z,1009.06
2018-07-04T02:39:22.234Z,1009.07
2018-07-04T02:39:48.391Z,1009.06
2018-07-04T02:40:14.575Z,1009.05
2018-07-04T02:40:40.708Z,1008.99
2018-07-04T02:41:06.875Z,1009.02
2018-07-04T02:41:33.005Z,1009.04
2018-07-04T02:41:59.172Z,1009
2018-07-04T02:42:25.311Z,1008.99
2018-07-04T02:42:51.455Z,1009.03
2018-07-04T02:43:17.618Z,1008.99
2018-07-04T02:43:43.829Z,1009
2018-07-04T02:44:09.991Z,1009
2018-07-04T02:44:36.150Z,1009
2018-07-04T02:45:02.385Z,1009.03
2018-07-04T02:45:28.535Z,1009.02
2018-07-04T02:45:54.667Z,1009.04
2018-07-04T02:46:20.853Z,1009.02
2018-07-04T02:46:46.985Z,1009.01
2018-07-04T02:47:13.129Z,1009.01
2018-07-04T02:47:39.298Z,1009.06
2018-07-04T02:48:05.464Z,1009.05
2018-07-04T02:48:31.604Z,1009.05
2018-07-04T02:48:57.765Z,1009.07
2018-07-04T02:49:23.896Z,1009.01
2018-07-04T02:49:50.099Z,1009.03
2018-07-04T02:50:16.257Z,1009
2018-07-04T02:50:42.467Z,1009.01
2018-07-04T02:51:08.604Z,1009.02
2018-07-04T02:51:34.799Z,1009.01
2018-07-04T02:52:00.966Z,1009.01
2018-07-04T02:52:27.120Z,1009.03
2018-07-04T02:52:53.281Z,1009.03
2018-07-04T02:53:19.421Z,1009.01
2018-07-04T02:53:45.611Z,1009
2018-07-04T02:54:11.746Z,1008.95
2018-07-04T02:54:37.879Z,1008.97
2018-07-04T02:55:04.045Z,1008.99
2018-07-04T02:55:30.211Z,1008.99
2018-07-04T02:55:56.421Z,1008.98
2018-07-04T02:56:22.559Z,1008.98
2018-07-04T02:56:48.698Z,1008.98
2018-07-04T02:57:14.877Z,1008.97
2018-07-04T02:57:41.013Z,1008.97
2018-07-04T02:58:07.154Z,1008.98
2018-07-04T02:58:33.291Z,1008.98
2018-07-04T02:58:59.456Z,1008.95
2018-07-04T02:59:25.608Z,1008.98
2018-07-04T02:59:51.753Z,1008.93
2018-07-04T03:00:17.909Z,1008.96
2018-07-04T03:00:44.136Z,1008.95
2018-07-04T03:01:10.550Z,1008.95
2018-07-04T03:01:36.984Z,1008.94
2018-07-04T03:02:03.329Z,1008.93
2018-07-04T03:02:29.560Z,1008.89
2018-07-04T03:02:55.861Z,1008.9
2018-07-04T03:03:22.219Z,1008.94
2018-07-04T03:03:48.431Z,1008.93
2018-07-04T03:04:14.828Z,1008.91
2018-07-04T03:04:41.181Z,1008.9
2018-07-04T03:05:07.409Z,1008.87
2018-07-04T03:05:33.689Z,1008.89
2018-07-04T03:05:59.918Z,1008.89
2018-07-04T03:06:26.161Z,1008.88
2018-07-04T03:06:52.298Z,1008.89
2018-07-04T03:07:18.434Z,1008.88
2018-07-04T03:07:44.568Z,1008.88
2018-07-04T03:08:10.735Z,1008.89
2018-07-04T03:08:36.892Z,1008.91
2018-07-04T03:09:03.028Z,1008.91
2018-07-04T03:09:29.166Z,1008.88
2018-07-04T03:09:55.301Z,1008.86
2018-07-04T03:10:21.440Z,1008.87
2018-07-04T03:10:47.598Z,1008.89
2018-07-04T03:11:13.734Z,1008.88
2018-07-04T03:11:39.894Z,1008.87
2018-07-04T03:12:06.080Z,1008.88
2018-07-04T03:12:32.242Z,1008.87
2018-07-04T03:12:58.405Z,1008.84
2018-07-04T03:13:24.592Z,1008.85
2018-07-04T03:13:50.752Z,1008.83
2018-07-04T03:14:16.922Z,1008.86
2018-07-04T03:14:43.065Z,1008.85
2018-07-04T03:15:09.224Z,1008.87
2018-07-04T03:15:35.370Z,1008.86
2018-07-04T03:16:01.525Z,1008.89
2018-07-04T03:16:27.682Z,1008.87
2018-07-04T03:16:53.848Z,1008.87
2018-07-04T03:17:20.044Z,1008.86
2018-07-04T03:17:46.209Z,1008.85
2018-07-04T03:18:12.378Z,1008.85
2018-07-04T03:18:38.538Z,1008.87
2018-07-04T03:19:04.704Z,1008.85
2018-07-04T03:19:30.869Z,1008.86
2018-07-04T03:19:57.088Z,1008.86
2018-07-04T03:20:23.268Z,1008.88
2018-07-04T03:20:49.480Z,1008.85
2018-07-04T03:21:15.665Z,1008.8
2018-07-04T03:21:41.815Z,1008.84
2018-07-04T03:22:07.970Z,1008.83
2018-07-04T03:22:34.131Z,1008.83
2018-07-04T03:23:00.329Z,1008.83
2018-07-04T03:23:26.489Z,1008.84
2018-07-04T03:23:52.623Z,1008.83
2018-07-04T03:24:18.766Z,1008.88
2018-07-04T03:24:44.931Z,1008.86
2018-07-04T03:25:11.099Z,1008.84
2018-07-04T03:25:37.226Z,1008.86
2018-07-04T03:26:03.364Z,1008.86
2018-07-04T03:26:29.502Z,1008.87
2018-07-04T03:26:55.693Z,1008.89
2018-07-04T03:27:21.830Z,1008.87
2018-07-04T03:27:48.007Z,1008.89
2018-07-04T03:28:14.161Z,1008.91
2018-07-04T03:28:40.297Z,1008.89
2018-07-04T03:29:06.436Z,1008.84
2018-07-04T03:29:32.576Z,1008.89
2018-07-04T03:29:58.714Z,1008.89
2018-07-04T03:30:24.849Z,1008.91
2018-07-04T03:30:50.994Z,1008.9
2018-07-04T03:31:17.172Z,1008.9
2018-07-04T03:31:43.317Z,1008.9
2018-07-04T03:32:09.479Z,1008.89
2018-07-04T03:32:35.647Z,1008.86
2018-07-04T03:33:01.813Z,1008.86
2018-07-04T03:33:27.987Z,1008.89
2018-07-04T03:33:54.123Z,1008.87
2018-07-04T03:34:20.265Z,1008.87
2018-07-04T03:34:46.396Z,1008.9
2018-07-04T03:35:12.540Z,1008.87
2018-07-04T03:35:38.679Z,1008.89
2018-07-04T03:36:04.816Z,1008.9
2018-07-04T03:36:30.952Z,1008.92
2018-07-04T03:36:57.089Z,1008.93
2018-07-04T03:37:23.230Z,1008.96
2018-07-04T03:37:49.365Z,1008.94
2018-07-04T03:38:15.523Z,1008.94
2018-07-04T03:38:41.661Z,1008.94
2018-07-04T03:39:07.807Z,1008.94
2018-07-04T03:39:33.953Z,1008.9
2018-07-04T03:40:00.090Z,1008.9
2018-07-04T03:40:26.276Z,1008.88
2018-07-04T03:40:52.415Z,1008.89
2018-07-04T03:41:18.575Z,1008.89
2018-07-04T03:41:44.711Z,1008.87
2018-07-04T03:42:10.855Z,1008.9
2018-07-04T03:42:36.992Z,1008.9
2018-07-04T03:43:03.134Z,1008.85
2018-07-04T03:43:29.300Z,1008.85
2018-07-04T03:43:55.446Z,1008.86
2018-07-04T03:44:21.610Z,1008.89
2018-07-04T03:44:47.745Z,1008.87
2018-07-04T03:45:13.887Z,1008.88
2018-07-04T03:45:40.027Z,1008.88
2018-07-04T03:46:06.162Z,1008.87
2018-07-04T03:46:32.328Z,1008.84
2018-07-04T03:46:58.467Z,1008.88
2018-07-04T03:47:24.603Z,1008.84
2018-07-04T03:47:50.736Z,1008.87
2018-07-04T03:48:16.897Z,1008.83
2018-07-04T03:48:43.032Z,1008.83
2018-07-04T03:49:09.168Z,1008.79
2018-07-04T03:49:35.355Z,1008.8
2018-07-04T03:50:01.496Z,1008.82
2018-07-04T03:50:27.629Z,1008.78
2018-07-04T03:50:53.800Z,1008.8
2018-07-04T03:51:19.938Z,1008.82
2018-07-04T03:51:46.110Z,1008.85
2018-07-04T03:52:12.266Z,1008.84
2018-07-04T03:52:38.402Z,1008.81
2018-07-04T03:53:04.537Z,1008.85
2018-07-04T03:53:30.676Z,1008.83
2018-07-04T03:53:56.816Z,1008.82
2018-07-04T03:54:22.955Z,1008.85
2018-07-04T03:54:49.097Z,1008.85
2018-07-04T03:55:15.261Z,1008.88
2018-07-04T03:55:41.397Z,1008.92
2018-07-04T03:56:07.561Z,1008.86
2018-07-04T03:56:33.700Z,1008.89
2018-07-04T03:56:59.859Z,1008.89
2018-07-04T03:57:26.021Z,1008.89
2018-07-04T03:57:52.183Z,1008.91
2018-07-04T03:58:18.327Z,1008.88
2018-07-04T03:58:44.490Z,1008.86
2018-07-04T03:59:10.618Z,1008.91
2018-07-04T03:59:36.778Z,1008.91
2018-07-04T04:00:02.947Z,1008.92
2018-07-04T04:00:29.090Z,1008.91
2018-07-04T04:00:55.218Z,1008.92
2018-07-04T04:01:21.386Z,1008.89
2018-07-04T04:01:47.557Z,1008.87
2018-07-04T04:02:13.695Z,1008.9
2018-07-04T04:02:39.833Z,1008.92
2018-07-04T04:03:05.999Z,1008.85
2018-07-04T04:03:32.134Z,1008.91
2018-07-04T04:03:58.272Z,1008.89
2018-07-04T04:04:24.430Z,1008.87
2018-07-04T04:04:50.569Z,1008.89
2018-07-04T04:05:16.721Z,1008.91
2018-07-04T04:05:42.866Z,1008.9
2018-07-04T04:06:08.993Z,1008.89
2018-07-04T04:06:35.136Z,1008.9
2018-07-04T04:07:01.274Z,1008.95
2018-07-04T04:07:27.418Z,1008.94
2018-07-04T04:07:53.555Z,1008.96
2018-07-04T04:08:19.691Z,1008.99
2018-07-04T04:08:45.827Z,1009.02
2018-07-04T04:09:11.997Z,1009
2018-07-04T04:09:38.139Z,1009.04
2018-07-04T04:10:04.304Z,1009.07
2018-07-04T04:10:30.436Z,1009.08
2018-07-04T04:10:56.574Z,1009.08
2018-07-04T04:11:22.712Z,1009.08
2018-07-04T04:11:48.841Z,1009.07
2018-07-04T04:12:15.012Z,1009.04
2018-07-04T04:12:41.174Z,1009
2018-07-04T04:13:07.302Z,1009.03
2018-07-04T04:13:33.442Z,1009.01
2018-07-04T04:13:59.605Z,1009.01
2018-07-04T04:14:25.754Z,1009.02
2018-07-04T04:14:51.882Z,1008.95
2018-07-04T04:15:18.022Z,1008.97
2018-07-04T04:15:44.160Z,1008.93
2018-07-04T04:16:10.298Z,1008.95
2018-07-04T04:16:36.437Z,1008.89
2018-07-04T04:17:02.572Z,1008.92
2018-07-04T04:17:28.708Z,1008.93
2018-07-04T04:17:54.849Z,1008.9
2018-07-04T04:18:20.988Z,1008.84
2018-07-04T04:18:47.153Z,1008.87
2018-07-04T04:19:13.295Z,1008.85
2018-07-04T04:19:39.426Z,1008.83
2018-07-04T04:20:05.571Z,1008.8
2018-07-04T04:20:31.703Z,1008.83
2018-07-04T04:20:57.841Z,1008.84
2018-07-04T04:21:23.980Z,1008.84
2018-07-04T04:21:50.114Z,1008.85
2018-07-04T04:22:16.256Z,1008.85
2018-07-04T04:22:42.426Z,1008.83
2018-07-04T04:23:08.558Z,1008.86
2018-07-04T04:23:34.724Z,1008.84
2018-07-04T04:24:00.872Z,1008.85
2018-07-04T04:24:27.027Z,1008.86
2018-07-04T04:24:53.196Z,1008.83
2018-07-04T04:25:19.333Z,1008.84
2018-07-04T04:25:45.474Z,1008.85
2018-07-04T04:26:11.614Z,1008.85
2018-07-04T04:26:37.767Z,1008.85
2018-07-04T04:27:03.946Z,1008.87
2018-07-04T04:27:30.072Z,1008.9
2018-07-04T04:27:56.206Z,1008.9
2018-07-04T04:28:22.347Z,1008.9
2018-07-04T04:28:48.484Z,1008.91
2018-07-04T04:29:14.622Z,1008.94
2018-07-04T04:29:40.757Z,1008.95
2018-07-04T04:30:06.894Z,1008.94
2018-07-04T04:30:33.037Z,1008.92
2018-07-04T04:30:59.193Z,1008.94
2018-07-04T04:31:25.332Z,1008.91
2018-07-04T04:31:51.477Z,1008.94
2018-07-04T04:32:17.602Z,1008.94
2018-07-04T04:32:43.744Z,1008.92
2018-07-04T04:33:09.878Z,1008.88
2018-07-04T04:33:36.023Z,1008.91
2018-07-04T04:34:02.208Z,1008.94
2018-07-04T04:34:28.338Z,1008.92
2018-07-04T04:34:54.477Z,1008.93
2018-07-04T04:35:20.613Z,1008.92
2018-07-04T04:35:46.753Z,1008.95
2018-07-04T04:36:12.925Z,1008.95
2018-07-04T04:36:39.029Z,1008.96
2018-07-04T04:37:05.174Z,1008.91
2018-07-04T04:37:31.315Z,1008.92
2018-07-04T04:37:57.450Z,1008.9
2018-07-04T04:38:23.621Z,1008.96
2018-07-04T04:38:49.754Z,1008.92
2018-07-04T04:39:15.922Z,1008.9
2018-07-04T04:39:42.065Z,1008.93
2018-07-04T04:40:08.200Z,1008.94
2018-07-04T04:40:34.333Z,1008.9
2018-07-04T04:41:00.476Z,1008.91
2018-07-04T04:41:26.613Z,1008.94
2018-07-04T04:41:52.750Z,1008.95
2018-07-04T04:42:18.921Z,1008.96
2018-07-04T04:42:45.076Z,1008.98
2018-07-04T04:43:11.217Z,1008.93
2018-07-04T04:43:37.362Z,1008.97
2018-07-04T04:44:03.495Z,1009
2018-07-04T04:44:29.625Z,1008.98
2018-07-04T04:44:55.767Z,1009.07
2018-07-04T04:45:21.907Z,1008.99
2018-07-04T04:45:48.075Z,1009.02
2018-07-04T04:46:14.414Z,1009.05
2018-07-04T04:46:40.836Z,1009.05
2018-07-04T04:47:07.067Z,1009
2018-07-04T04:47:33.260Z,1009.03
2018-07-04T04:47:59.456Z,1009.02
2018-07-04T04:48:25.680Z,1009.04
2018-07-04T04:48:51.835Z,1009
2018-07-04T04:49:17.911Z,1009.02
2018-07-04T04:49:44.058Z,1008.99
2018-07-04T04:50:10.198Z,1009
2018-07-04T04:50:36.336Z,1008.97
2018-07-04T04:51:02.485Z,1008.93
2018-07-04T04:51:28.617Z,1008.95
2018-07-04T04:51:54.755Z,1008.94
2018-07-04T04:52:20.895Z,1008.94
2018-07-04T04:52:47.030Z,1008.89
2018-07-04T04:53:13.174Z,1008.89
2018-07-04T04:53:39.337Z,1008.85
2018-07-04T04:54:05.477Z,1008.84
2018-07-04T04:54:31.614Z,1008.83
2018-07-04T04:54:57.773Z,1008.78
2018-07-04T04:55:23.917Z,1008.79
2018-07-04T04:55:50.079Z,1008.8
2018-07-04T04:56:16.210Z,1008.74
2018-07-04T04:56:42.349Z,1008.82
2018-07-04T04:57:08.490Z,1008.8
2018-07-04T04:57:34.628Z,1008.82
2018-07-04T04:58:00.772Z,1008.85
2018-07-04T04:58:26.914Z,1008.9
2018-07-04T04:58:53.097Z,1008.85
2018-07-04T04:59:19.233Z,1008.88
2018-07-04T04:59:45.431Z,1008.93
2018-07-04T05:00:11.529Z,1008.88
2018-07-04T05:00:37.667Z,1008.9
2018-07-04T05:01:03.839Z,1008.83
2018-07-04T05:01:29.973Z,1008.79
2018-07-04T05:01:56.141Z,1008.82
2018-07-04T05:02:22.276Z,1008.79
2018-07-04T05:02:48.410Z,1008.78
2018-07-04T05:03:14.571Z,1008.84
2018-07-04T05:03:40.710Z,1008.82
2018-07-04T05:04:06.861Z,1008.8
2018-07-04T05:04:33.005Z,1008.8
2018-07-04T05:04:59.140Z,1008.79
2018-07-04T05:05:25.318Z,1008.82
2018-07-04T05:05:51.461Z,1008.82
2018-07-04T05:06:17.594Z,1008.8
2018-07-04T05:06:43.738Z,1008.87
2018-07-04T05:07:09.904Z,1008.86
2018-07-04T05:07:36.044Z,1008.87
2018-07-04T05:08:02.190Z,1008.86
2018-07-04T05:08:28.321Z,1008.9
2018-07-04T05:08:54.457Z,1008.88
2018-07-04T05:09:20.602Z,1008.87
2018-07-04T05:09:46.739Z,1008.88
2018-07-04T05:10:12.875Z,1008.91
2018-07-04T05:10:39.019Z,1008.9
2018-07-04T05:11:05.189Z,1008.88
2018-07-04T05:11:31.324Z,1008.89
2018-07-04T05:11:57.465Z,1008.89
2018-07-04T05:12:23.605Z,1008.88
2018-07-04T05:12:49.749Z,1008.86
2018-07-04T05:13:15.936Z,1008.87
2018-07-04T05:13:42.076Z,1008.87
2018-07-04T05:14:08.216Z,1008.88
2018-07-04T05:14:34.357Z,1008.85
2018-07-04T05:15:00.525Z,1008.83
2018-07-04T05:15:26.684Z,1008.86
2018-07-04T05:15:52.864Z,1008.82
2018-07-04T05:16:19.003Z,1008.82
2018-07-04T05:16:45.150Z,1008.82
2018-07-04T05:17:11.282Z,1008.81
2018-07-04T05:17:37.411Z,1008.84